sensor_id;sensor_type;location;lat;lon;timestamp;pressure;altitude;pressure_sealevel;temperature;humidity
74722;BME280;63470;49.826;6.740;2023-01-26T00:01:38;100991.66;;;1.20;69.47
74722;BME280;63470;49.826;6.740;2023-01-26T00:04:09;100988.42;;;1.21;69.50
74722;BME280;63470;49.826;6.740;2023-01-26T00:06:39;100995.97;;;1.26;69.54
74722;BME280;63470;49.826;6.740;2023-01-26T00:09:12;100987.12;;;1.26;69.57
74722;BME280;63470;49.826;6.740;2023-01-26T00:11:40;100993.48;;;1.29;69.58
74722;BME280;63470;49.826;6.740;2023-01-26T00:14:10;100987.92;;;1.31;69.55
74722;BME280;63470;49.826;6.740;2023-01-26T00:16:41;100986.91;;;1.31;69.48
74722;BME280;63470;49.826;6.740;2023-01-26T00:19:11;100985.03;;;1.29;69.32
74722;BME280;63470;49.826;6.740;2023-01-26T00:22:06;100978.95;;;1.24;69.38
74722;BME280;63470;49.826;6.740;2023-01-26T00:24:18;100983.02;;;1.22;69.42
74722;BME280;63470;49.826;6.740;2023-01-26T00:26:43;100992.05;;;1.20;69.41
74722;BME280;63470;49.826;6.740;2023-01-26T00:29:13;100992.83;;;1.20;69.44
74722;BME280;63470;49.826;6.740;2023-01-26T00:31:44;100995.48;;;1.21;69.48
74722;BME280;63470;49.826;6.740;2023-01-26T00:34:15;100994.92;;;1.24;69.50
74722;BME280;63470;49.826;6.740;2023-01-26T00:36:45;100987.55;;;1.27;69.56
74722;BME280;63470;49.826;6.740;2023-01-26T00:39:16;100989.17;;;1.32;69.52
74722;BME280;63470;49.826;6.740;2023-01-26T00:42:13;100995.41;;;1.35;69.52
74722;BME280;63470;49.826;6.740;2023-01-26T00:44:22;100995.58;;;1.36;69.45
74722;BME280;63470;49.826;6.740;2023-01-26T00:46:48;100997.75;;;1.35;69.44
74722;BME280;63470;49.826;6.740;2023-01-26T00:49:19;100990.89;;;1.34;69.42
74722;BME280;63470;49.826;6.740;2023-01-26T00:51:49;100991.80;;;1.35;69.42
74722;BME280;63470;49.826;6.740;2023-01-26T00:54:20;101000.07;;;1.32;69.44
74722;BME280;63470;49.826;6.740;2023-01-26T00:56:51;101000.07;;;1.32;69.51
74722;BME280;63470;49.826;6.740;2023-01-26T00:59:21;101003.23;;;1.33;69.59
74722;BME280;63470;49.826;6.740;2023-01-26T01:01:52;100997.72;;;1.34;69.54
74722;BME280;63470;49.826;6.740;2023-01-26T01:04:23;100998.70;;;1.34;69.52
74722;BME280;63470;49.826;6.740;2023-01-26T01:06:56;101008.20;;;1.31;69.41
74722;BME280;63470;49.826;6.740;2023-01-26T01:09:24;101002.52;;;1.24;69.43
74722;BME280;63470;49.826;6.740;2023-01-26T01:11:55;100996.39;;;1.19;69.52
74722;BME280;63470;49.826;6.740;2023-01-26T01:14:25;100991.00;;;1.16;69.60
74722;BME280;63470;49.826;6.740;2023-01-26T01:16:56;100986.27;;;1.15;69.70
74722;BME280;63470;49.826;6.740;2023-01-26T01:19:33;100990.96;;;1.14;69.77
74722;BME280;63470;49.826;6.740;2023-01-26T01:21:57;100992.36;;;1.15;69.79
74722;BME280;63470;49.826;6.740;2023-01-26T01:24:30;100990.05;;;1.12;69.60
74722;BME280;63470;49.826;6.740;2023-01-26T01:27:08;100995.25;;;1.05;69.57
74722;BME280;63470;49.826;6.740;2023-01-26T01:29:31;100991.38;;;1.01;69.58
74722;BME280;63470;49.826;6.740;2023-01-26T01:31:59;100983.64;;;0.98;69.64
74722;BME280;63470;49.826;6.740;2023-01-26T01:34:30;100982.72;;;0.97;69.69
74722;BME280;63470;49.826;6.740;2023-01-26T01:37:00;100979.54;;;0.97;69.73
74722;BME280;63470;49.826;6.740;2023-01-26T01:39:31;100982.51;;;0.96;69.76
74722;BME280;63470;49.826;6.740;2023-01-26T01:42:02;100981.51;;;0.98;69.85
74722;BME280;63470;49.826;6.740;2023-01-26T01:44:35;100975.15;;;1.02;69.80
74722;BME280;63470;49.826;6.740;2023-01-26T01:47:22;100968.77;;;1.02;69.64
74722;BME280;63470;49.826;6.740;2023-01-26T01:49:56;100969.27;;;1.01;69.55
74722;BME280;63470;49.826;6.740;2023-01-26T01:52:24;100966.49;;;1.00;69.61
74722;BME280;63470;49.826;6.740;2023-01-26T01:54:42;100965.47;;;1.01;69.65
74722;BME280;63470;49.826;6.740;2023-01-26T01:57:07;100957.92;;;1.02;69.63
74722;BME280;63470;49.826;6.740;2023-01-26T01:59:35;100960.78;;;1.02;69.58
74722;BME280;63470;49.826;6.740;2023-01-26T02:02:05;100961.24;;;1.01;69.61
74722;BME280;63470;49.826;6.740;2023-01-26T02:04:36;100961.94;;;1.02;69.60
74722;BME280;63470;49.826;6.740;2023-01-26T02:07:06;100951.98;;;0.99;69.51
74722;BME280;63470;49.826;6.740;2023-01-26T02:10:15;100950.89;;;0.93;69.54
74722;BME280;63470;49.826;6.740;2023-01-26T02:12:10;100950.83;;;0.86;69.50
74722;BME280;63470;49.826;6.740;2023-01-26T02:14:39;100946.95;;;0.80;69.57
74722;BME280;63470;49.826;6.740;2023-01-26T02:17:10;100943.27;;;0.73;69.58
74722;BME280;63470;49.826;6.740;2023-01-26T02:22:23;100941.48;;;0.59;69.71
74722;BME280;63470;49.826;6.740;2023-01-26T02:24:40;100944.42;;;0.54;69.79
74722;BME280;63470;49.826;6.740;2023-01-26T02:27:10;100938.17;;;0.53;69.87
74722;BME280;63470;49.826;6.740;2023-01-26T02:29:42;100934.75;;;0.54;69.91
74722;BME280;63470;49.826;6.740;2023-01-26T02:32:18;100924.19;;;0.55;69.88
74722;BME280;63470;49.826;6.740;2023-01-26T02:34:41;100924.98;;;0.56;69.89
74722;BME280;63470;49.826;6.740;2023-01-26T02:37:13;100921.06;;;0.55;69.89
74722;BME280;63470;49.826;6.740;2023-01-26T02:39:57;100918.56;;;0.56;69.83
74722;BME280;63470;49.826;6.740;2023-01-26T02:42:41;100913.20;;;0.56;69.89
74722;BME280;63470;49.826;6.740;2023-01-26T02:44:43;100909.65;;;0.57;69.86
74722;BME280;63470;49.826;6.740;2023-01-26T02:47:16;100911.53;;;0.56;69.84
74722;BME280;63470;49.826;6.740;2023-01-26T02:49:50;100913.71;;;0.56;69.81
74722;BME280;63470;49.826;6.740;2023-01-26T02:52:28;100908.91;;;0.56;69.86
74722;BME280;63470;49.826;6.740;2023-01-26T02:55:20;100902.92;;;0.57;69.91
74722;BME280;63470;49.826;6.740;2023-01-26T02:57:14;100902.67;;;0.58;69.89
74722;BME280;63470;49.826;6.740;2023-01-26T02:59:45;100903.50;;;0.62;69.89
74722;BME280;63470;49.826;6.740;2023-01-26T03:02:16;100902.77;;;0.64;69.90
74722;BME280;63470;49.826;6.740;2023-01-26T03:04:50;100897.24;;;0.66;69.87
74722;BME280;63470;49.826;6.740;2023-01-26T03:07:17;100895.17;;;0.65;69.83
74722;BME280;63470;49.826;6.740;2023-01-26T03:09:48;100891.28;;;0.65;69.89
74722;BME280;63470;49.826;6.740;2023-01-26T03:12:24;100881.73;;;0.69;69.94
74722;BME280;63470;49.826;6.740;2023-01-26T03:15:11;100878.03;;;0.74;69.89
74722;BME280;63470;49.826;6.740;2023-01-26T03:17:19;100881.67;;;0.78;69.78
74722;BME280;63470;49.826;6.740;2023-01-26T03:20:26;100879.09;;;0.79;69.58
74722;BME280;63470;49.826;6.740;2023-01-26T03:22:57;100879.03;;;0.74;69.52
74722;BME280;63470;49.826;6.740;2023-01-26T03:25:28;100877.91;;;0.71;69.50
74722;BME280;63470;49.826;6.740;2023-01-26T03:27:32;100871.74;;;0.66;69.50
74722;BME280;63470;49.826;6.740;2023-01-26T03:29:53;100872.94;;;0.62;69.56
74722;BME280;63470;49.826;6.740;2023-01-26T03:32:24;100866.55;;;0.61;69.68
74722;BME280;63470;49.826;6.740;2023-01-26T03:34:54;100862.26;;;0.62;69.77
74722;BME280;63470;49.826;6.740;2023-01-26T03:37:24;100864.88;;;0.63;69.83
74722;BME280;63470;49.826;6.740;2023-01-26T03:40:32;100864.48;;;0.65;69.81
74722;BME280;63470;49.826;6.740;2023-01-26T03:43:06;100867.41;;;0.64;69.68
74722;BME280;63470;49.826;6.740;2023-01-26T03:45:32;100864.90;;;0.61;69.64
74722;BME280;63470;49.826;6.740;2023-01-26T03:48:08;100857.69;;;0.58;69.71
74722;BME280;63470;49.826;6.740;2023-01-26T03:50:34;100863.95;;;0.56;69.72
74722;BME280;63470;49.826;6.740;2023-01-26T03:53:14;100859.50;;;0.57;69.81
74722;BME280;63470;49.826;6.740;2023-01-26T03:55:35;100860.59;;;0.60;69.92
74722;BME280;63470;49.826;6.740;2023-01-26T03:57:28;100860.63;;;0.64;69.92
74722;BME280;63470;49.826;6.740;2023-01-26T03:59:59;100859.91;;;0.66;69.83
74722;BME280;63470;49.826;6.740;2023-01-26T04:03:06;100860.48;;;0.67;69.80
74722;BME280;63470;49.826;6.740;2023-01-26T04:05:36;100861.58;;;0.68;69.77
74722;BME280;63470;49.826;6.740;2023-01-26T04:08:11;100863.41;;;0.69;69.74
74722;BME280;63470;49.826;6.740;2023-01-26T04:10:00;100857.80;;;0.69;69.64
74722;BME280;63470;49.826;6.740;2023-01-26T04:12:31;100855.71;;;0.65;69.68
74722;BME280;63470;49.826;6.740;2023-01-26T04:15:38;100859.70;;;0.63;69.73
74722;BME280;63470;49.826;6.740;2023-01-26T04:18:08;100864.34;;;0.61;69.70
74722;BME280;63470;49.826;6.740;2023-01-26T04:20:39;100855.73;;;0.57;69.68
74722;BME280;63470;49.826;6.740;2023-01-26T04:22:37;100854.00;;;0.53;69.70
74722;BME280;63470;49.826;6.740;2023-01-26T04:25:04;100859.94;;;0.51;69.71
74722;BME280;63470;49.826;6.740;2023-01-26T04:27:40;100862.53;;;0.49;69.74
74722;BME280;63470;49.826;6.740;2023-01-26T04:30:05;100863.52;;;0.46;69.81
74722;BME280;63470;49.826;6.740;2023-01-26T04:32:35;100864.97;;;0.46;69.85
74722;BME280;63470;49.826;6.740;2023-01-26T04:35:06;100864.20;;;0.48;69.88
74722;BME280;63470;49.826;6.740;2023-01-26T04:37:36;100861.91;;;0.49;69.86
74722;BME280;63470;49.826;6.740;2023-01-26T04:40:08;100858.83;;;0.49;69.80
74722;BME280;63470;49.826;6.740;2023-01-26T04:42:38;100856.80;;;0.50;69.77
74722;BME280;63470;49.826;6.740;2023-01-26T04:45:10;100858.62;;;0.50;69.84
74722;BME280;63470;49.826;6.740;2023-01-26T04:47:44;100861.52;;;0.52;69.89
74722;BME280;63470;49.826;6.740;2023-01-26T04:50:10;100860.59;;;0.56;69.95
74722;BME280;63470;49.826;6.740;2023-01-26T04:52:46;100856.62;;;0.59;69.88
74722;BME280;63470;49.826;6.740;2023-01-26T04:55:13;100857.27;;;0.60;69.83
74722;BME280;63470;49.826;6.740;2023-01-26T04:57:46;100860.42;;;0.61;69.77
74722;BME280;63470;49.826;6.740;2023-01-26T05:00:19;100863.06;;;0.59;69.76
74722;BME280;63470;49.826;6.740;2023-01-26T05:02:42;100854.14;;;0.57;69.73
74722;BME280;63470;49.826;6.740;2023-01-26T05:05:12;100852.31;;;0.56;69.78
74722;BME280;63470;49.826;6.740;2023-01-26T05:07:48;100856.34;;;0.55;69.77
74722;BME280;63470;49.826;6.740;2023-01-26T05:10:15;100855.19;;;0.54;69.79
74722;BME280;63470;49.826;6.740;2023-01-26T05:12:47;100856.31;;;0.55;69.82
74722;BME280;63470;49.826;6.740;2023-01-26T05:15:18;100856.33;;;0.56;69.78
74722;BME280;63470;49.826;6.740;2023-01-26T05:17:48;100852.56;;;0.56;69.78
74722;BME280;63470;49.826;6.740;2023-01-26T05:20:22;100851.27;;;0.56;69.77
74722;BME280;63470;49.826;6.740;2023-01-26T05:22:49;100850.53;;;0.57;69.77
74722;BME280;63470;49.826;6.740;2023-01-26T05:25:17;100852.84;;;0.59;69.77
74722;BME280;63470;49.826;6.740;2023-01-26T05:28:03;100853.23;;;0.59;69.67
74722;BME280;63470;49.826;6.740;2023-01-26T05:30:19;100857.44;;;0.56;69.63
74722;BME280;63470;49.826;6.740;2023-01-26T05:32:52;100853.91;;;0.53;69.64
74722;BME280;63470;49.826;6.740;2023-01-26T05:35:20;100850.57;;;0.50;69.69
74722;BME280;63470;49.826;6.740;2023-01-26T05:37:57;100850.77;;;0.49;69.78
74722;BME280;63470;49.826;6.740;2023-01-26T05:40:31;100851.89;;;0.49;69.70
74722;BME280;63470;49.826;6.740;2023-01-26T05:42:54;100853.72;;;0.45;69.72
74722;BME280;63470;49.826;6.740;2023-01-26T05:45:22;100852.82;;;0.42;69.76
74722;BME280;63470;49.826;6.740;2023-01-26T05:47:58;100855.34;;;0.40;69.75
74722;BME280;63470;49.826;6.740;2023-01-26T05:50:23;100850.24;;;0.36;69.73
74722;BME280;63470;49.826;6.740;2023-01-26T05:52:54;100852.77;;;0.31;69.75
74722;BME280;63470;49.826;6.740;2023-01-26T05:55:25;100857.50;;;0.30;69.81
74722;BME280;63470;49.826;6.740;2023-01-26T05:57:56;100859.28;;;0.27;69.79
74722;BME280;63470;49.826;6.740;2023-01-26T06:00:26;100855.28;;;0.25;69.77
74722;BME280;63470;49.826;6.740;2023-01-26T06:02:57;100853.97;;;0.22;69.80
74722;BME280;63470;49.826;6.740;2023-01-26T06:05:28;100855.28;;;0.20;69.86
74722;BME280;63470;49.826;6.740;2023-01-26T06:07:58;100850.41;;;0.20;69.87
74722;BME280;63470;49.826;6.740;2023-01-26T06:10:29;100850.39;;;0.22;69.90
74722;BME280;63470;49.826;6.740;2023-01-26T06:13:00;100860.34;;;0.23;69.86
74722;BME280;63470;49.826;6.740;2023-01-26T06:15:31;100859.67;;;0.22;69.73
74722;BME280;63470;49.826;6.740;2023-01-26T06:18:02;100865.13;;;0.16;69.65
74722;BME280;63470;49.826;6.740;2023-01-26T06:20:31;100865.47;;;0.12;69.74
74722;BME280;63470;49.826;6.740;2023-01-26T06:23:02;100860.38;;;0.10;69.85
74722;BME280;63470;49.826;6.740;2023-01-26T06:25:33;100864.21;;;0.09;69.88
74722;BME280;63470;49.826;6.740;2023-01-26T06:28:04;100867.27;;;0.09;69.87
74722;BME280;63470;49.826;6.740;2023-01-26T06:30:42;100870.84;;;0.06;69.79
74722;BME280;63470;49.826;6.740;2023-01-26T06:33:06;100869.68;;;0.05;69.89
74722;BME280;63470;49.826;6.740;2023-01-26T06:35:36;100875.33;;;0.05;69.87
74722;BME280;63470;49.826;6.740;2023-01-26T06:38:05;100875.55;;;0.06;69.89
74722;BME280;63470;49.826;6.740;2023-01-26T06:40:36;100875.11;;;0.07;69.86
74722;BME280;63470;49.826;6.740;2023-01-26T06:43:07;100879.12;;;0.08;69.85
74722;BME280;63470;49.826;6.740;2023-01-26T06:45:38;100877.93;;;0.07;69.78
74722;BME280;63470;49.826;6.740;2023-01-26T06:48:08;100882.53;;;0.05;69.78
74722;BME280;63470;49.826;6.740;2023-01-26T06:50:39;100883.55;;;0.01;69.77
74722;BME280;63470;49.826;6.740;2023-01-26T06:53:29;100887.30;;;-0.03;69.74
74722;BME280;63470;49.826;6.740;2023-01-26T06:55:41;100891.50;;;-0.07;69.78
74722;BME280;63470;49.826;6.740;2023-01-26T06:58:11;100895.64;;;-0.09;69.84
74722;BME280;63470;49.826;6.740;2023-01-26T07:00:41;100891.41;;;-0.10;69.83
74722;BME280;63470;49.826;6.740;2023-01-26T07:03:15;100898.48;;;-0.11;69.84
74722;BME280;63470;49.826;6.740;2023-01-26T07:05:43;100902.23;;;-0.15;69.77
74722;BME280;63470;49.826;6.740;2023-01-26T07:08:13;100909.44;;;-0.16;69.86
74722;BME280;63470;49.826;6.740;2023-01-26T07:10:43;100910.04;;;-0.17;69.84
74722;BME280;63470;49.826;6.740;2023-01-26T07:13:15;100919.49;;;-0.22;69.74
74722;BME280;63470;49.826;6.740;2023-01-26T07:15:45;100922.30;;;-0.25;69.78
74722;BME280;63470;49.826;6.740;2023-01-26T07:18:14;100932.27;;;-0.28;69.76
74722;BME280;63470;49.826;6.740;2023-01-26T07:20:45;100935.14;;;-0.30;69.82
74722;BME280;63470;49.826;6.740;2023-01-26T07:23:16;100933.67;;;-0.33;69.82
74722;BME280;63470;49.826;6.740;2023-01-26T07:25:47;100936.89;;;-0.37;69.85
74722;BME280;63470;49.826;6.740;2023-01-26T07:28:18;100942.02;;;-0.39;69.92
74722;BME280;63470;49.826;6.740;2023-01-26T07:30:48;100948.15;;;-0.38;69.94
74722;BME280;63470;49.826;6.740;2023-01-26T07:33:19;100948.02;;;-0.37;69.91
74722;BME280;63470;49.826;6.740;2023-01-26T07:36:02;100946.50;;;-0.38;69.89
74722;BME280;63470;49.826;6.740;2023-01-26T07:38:21;100952.80;;;-0.39;69.89
74722;BME280;63470;49.826;6.740;2023-01-26T07:40:51;100952.72;;;-0.39;69.88
74722;BME280;63470;49.826;6.740;2023-01-26T07:43:21;100953.11;;;-0.39;69.86
74722;BME280;63470;49.826;6.740;2023-01-26T07:45:53;100953.61;;;-0.39;69.87
74722;BME280;63470;49.826;6.740;2023-01-26T07:48:23;100955.52;;;-0.38;69.76
74722;BME280;63470;49.826;6.740;2023-01-26T07:50:56;100952.12;;;-0.40;69.79
74722;BME280;63470;49.826;6.740;2023-01-26T07:53:29;100955.34;;;-0.38;69.83
74722;BME280;63470;49.826;6.740;2023-01-26T07:56:03;100951.24;;;-0.36;69.87
74722;BME280;63470;49.826;6.740;2023-01-26T07:58:30;100947.14;;;-0.34;69.74
74722;BME280;63470;49.826;6.740;2023-01-26T08:01:07;100948.09;;;-0.35;69.81
74722;BME280;63470;49.826;6.740;2023-01-26T08:03:25;100947.67;;;-0.32;69.89
74722;BME280;63470;49.826;6.740;2023-01-26T08:05:56;100941.33;;;-0.26;69.89
74722;BME280;63470;49.826;6.740;2023-01-26T08:08:28;100938.92;;;-0.19;69.85
74722;BME280;63470;49.826;6.740;2023-01-26T08:10:57;100941.19;;;-0.15;69.81
74722;BME280;63470;49.826;6.740;2023-01-26T08:13:28;100940.77;;;-0.09;69.83
74722;BME280;63470;49.826;6.740;2023-01-26T08:16:02;100945.09;;;-0.04;69.82
74722;BME280;63470;49.826;6.740;2023-01-26T08:18:35;100943.61;;;0.02;69.82
74722;BME280;63470;49.826;6.740;2023-01-26T08:21:09;100948.01;;;0.09;69.80
74722;BME280;63470;49.826;6.740;2023-01-26T08:23:30;100945.48;;;0.17;69.77
74722;BME280;63470;49.826;6.740;2023-01-26T08:26:02;100952.91;;;0.24;69.62
74722;BME280;63470;49.826;6.740;2023-01-26T08:28:32;100948.61;;;0.25;69.57
74722;BME280;63470;49.826;6.740;2023-01-26T08:31:11;100950.75;;;0.25;69.56
74722;BME280;63470;49.826;6.740;2023-01-26T08:33:32;100945.41;;;0.26;69.59
74722;BME280;63470;49.826;6.740;2023-01-26T08:36:04;100946.64;;;0.26;69.60
74722;BME280;63470;49.826;6.740;2023-01-26T08:38:34;100943.45;;;0.30;69.62
74722;BME280;63470;49.826;6.740;2023-01-26T08:41:04;100941.49;;;0.37;69.62
74722;BME280;63470;49.826;6.740;2023-01-26T08:43:34;100938.87;;;0.44;69.59
74722;BME280;63470;49.826;6.740;2023-01-26T08:46:05;100939.69;;;0.49;69.56
74722;BME280;63470;49.826;6.740;2023-01-26T08:48:34;100940.34;;;0.54;69.58
74722;BME280;63470;49.826;6.740;2023-01-26T08:51:06;100935.29;;;0.63;69.64
74722;BME280;63470;49.826;6.740;2023-01-26T08:53:37;100934.60;;;0.73;69.57
74722;BME280;63470;49.826;6.740;2023-01-26T08:56:09;100934.58;;;0.82;69.49
74722;BME280;63470;49.826;6.740;2023-01-26T08:58:38;100934.80;;;0.98;69.36
74722;BME280;63470;49.826;6.740;2023-01-26T09:01:18;100938.16;;;1.06;69.29
74722;BME280;63470;49.826;6.740;2023-01-26T09:03:38;100930.80;;;1.14;69.25
74722;BME280;63470;49.826;6.740;2023-01-26T09:06:11;100934.03;;;1.23;69.29
74722;BME280;63470;49.826;6.740;2023-01-26T09:08:40;100930.50;;;1.35;69.27
74722;BME280;63470;49.826;6.740;2023-01-26T09:11:11;100930.61;;;1.40;69.07
74722;BME280;63470;49.826;6.740;2023-01-26T09:13:41;100934.42;;;1.38;69.11
74722;BME280;63470;49.826;6.740;2023-01-26T09:16:15;100931.58;;;1.40;69.07
74722;BME280;63470;49.826;6.740;2023-01-26T09:18:42;100934.73;;;1.42;69.15
74722;BME280;63470;49.826;6.740;2023-01-26T09:21:18;100932.03;;;1.47;69.27
74722;BME280;63470;49.826;6.740;2023-01-26T09:23:44;100924.02;;;1.55;69.30
74722;BME280;63470;49.826;6.740;2023-01-26T09:26:14;100928.50;;;1.63;69.29
74722;BME280;63470;49.826;6.740;2023-01-26T09:28:48;100927.23;;;1.73;69.22
74722;BME280;63470;49.826;6.740;2023-01-26T09:31:15;100927.55;;;1.75;69.20
74722;BME280;63470;49.826;6.740;2023-01-26T09:33:47;100931.12;;;1.77;69.12
74722;BME280;63470;49.826;6.740;2023-01-26T09:36:16;100930.66;;;1.75;69.15
74722;BME280;63470;49.826;6.740;2023-01-26T09:38:47;100926.17;;;1.69;69.21
74722;BME280;63470;49.826;6.740;2023-01-26T09:41:48;100930.89;;;1.69;69.32
74722;BME280;63470;49.826;6.740;2023-01-26T09:43:50;100933.73;;;1.75;69.43
74722;BME280;63470;49.826;6.740;2023-01-26T09:46:23;100933.40;;;1.83;69.34
74722;BME280;63470;49.826;6.740;2023-01-26T09:51:31;100930.33;;;1.89;69.37
74722;BME280;63470;49.826;6.740;2023-01-26T09:53:53;100930.27;;;1.94;69.38
74722;BME280;63470;49.826;6.740;2023-01-26T09:56:23;100930.48;;;1.99;69.32
74722;BME280;63470;49.826;6.740;2023-01-26T09:58:53;100927.91;;;2.08;69.40
74722;BME280;63470;49.826;6.740;2023-01-26T10:01:30;100925.43;;;2.19;69.26
74722;BME280;63470;49.826;6.740;2023-01-26T10:04:01;100922.38;;;2.20;69.08
74722;BME280;63470;49.826;6.740;2023-01-26T10:06:25;100924.09;;;2.20;69.11
74722;BME280;63470;49.826;6.740;2023-01-26T10:08:59;100927.91;;;2.28;69.18
74722;BME280;63470;49.826;6.740;2023-01-26T10:11:28;100924.38;;;2.32;69.14
74722;BME280;63470;49.826;6.740;2023-01-26T10:13:57;100927.28;;;2.40;69.21
74722;BME280;63470;49.826;6.740;2023-01-26T10:16:24;100923.86;;;2.48;69.27
74722;BME280;63470;49.826;6.740;2023-01-26T10:19:03;100921.73;;;2.58;69.25
74722;BME280;63470;49.826;6.740;2023-01-26T10:21:37;100917.81;;;2.60;69.15
74722;BME280;63470;49.826;6.740;2023-01-26T10:23:58;100922.16;;;2.67;69.27
74722;BME280;63470;49.826;6.740;2023-01-26T10:26:29;100916.73;;;2.86;69.38
74722;BME280;63470;49.826;6.740;2023-01-26T10:28:56;100919.57;;;3.05;69.11
74722;BME280;63470;49.826;6.740;2023-01-26T10:31:28;100917.45;;;3.05;68.90
74722;BME280;63470;49.826;6.740;2023-01-26T10:33:59;100916.27;;;3.04;69.07
74722;BME280;63470;49.826;6.740;2023-01-26T10:36:29;100913.53;;;3.04;69.13
74722;BME280;63470;49.826;6.740;2023-01-26T10:39:04;100914.75;;;3.11;69.11
74722;BME280;63470;49.826;6.740;2023-01-26T10:41:29;100910.73;;;3.04;69.03
74722;BME280;63470;49.826;6.740;2023-01-26T10:46:40;100907.97;;;2.82;69.04
74722;BME280;63470;49.826;6.740;2023-01-26T10:51:32;100903.39;;;2.68;69.34
74722;BME280;63470;49.826;6.740;2023-01-26T10:54:24;100901.04;;;2.61;69.36
74722;BME280;63470;49.826;6.740;2023-01-26T10:56:33;100899.02;;;2.55;69.37
74722;BME280;63470;49.826;6.740;2023-01-26T10:59:07;100900.81;;;2.46;69.46
74722;BME280;63470;49.826;6.740;2023-01-26T11:01:57;100903.12;;;2.45;69.57
74722;BME280;63470;49.826;6.740;2023-01-26T11:04:10;100902.52;;;2.46;69.68
74722;BME280;63470;49.826;6.740;2023-01-26T11:06:34;100903.74;;;2.46;69.55
74722;BME280;63470;49.826;6.740;2023-01-26T11:11:35;100894.34;;;2.27;69.53
74722;BME280;63470;49.826;6.740;2023-01-26T11:14:16;100889.16;;;2.17;69.62
74722;BME280;63470;49.826;6.740;2023-01-26T11:16:37;100882.25;;;2.14;69.74
74722;BME280;63470;49.826;6.740;2023-01-26T11:19:16;100883.70;;;2.16;69.80
74722;BME280;63470;49.826;6.740;2023-01-26T11:21:54;100877.90;;;2.18;69.78
74722;BME280;63470;49.826;6.740;2023-01-26T11:24:32;100873.58;;;2.24;69.76
74722;BME280;63470;49.826;6.740;2023-01-26T11:31:56;100862.01;;;2.32;69.61
74722;BME280;63470;49.826;6.740;2023-01-26T11:34:23;100857.77;;;2.33;69.66
74722;BME280;63470;49.826;6.740;2023-01-26T11:39:39;100856.66;;;2.37;69.75
74722;BME280;63470;49.826;6.740;2023-01-26T11:47:12;100844.71;;;2.62;69.65
74722;BME280;63470;49.826;6.740;2023-01-26T11:54:37;100834.09;;;2.90;69.30
74722;BME280;63470;49.826;6.740;2023-01-26T11:59:18;100832.41;;;2.91;69.36
74722;BME280;63470;49.826;6.740;2023-01-26T12:02:05;100829.14;;;2.97;69.35
74722;BME280;63470;49.826;6.740;2023-01-26T12:04:18;100827.33;;;3.00;69.36
74722;BME280;63470;49.826;6.740;2023-01-26T12:06:48;100824.53;;;3.05;69.47
74722;BME280;63470;49.826;6.740;2023-01-26T12:09:29;100823.09;;;3.06;69.30
74722;BME280;63470;49.826;6.740;2023-01-26T12:12:13;100825.28;;;3.06;69.42
74722;BME280;63470;49.826;6.740;2023-01-26T12:14:25;100822.65;;;3.06;69.52
74722;BME280;63470;49.826;6.740;2023-01-26T12:17:15;100815.08;;;3.10;69.62
74722;BME280;63470;49.826;6.740;2023-01-26T12:19:42;100813.48;;;3.11;69.39
74722;BME280;63470;49.826;6.740;2023-01-26T12:21:48;100814.81;;;3.05;69.30
74722;BME280;63470;49.826;6.740;2023-01-26T12:24:35;100809.57;;;2.96;69.40
74722;BME280;63470;49.826;6.740;2023-01-26T12:26:52;100806.84;;;2.85;69.48
74722;BME280;63470;49.826;6.740;2023-01-26T12:29:29;100804.31;;;2.82;69.68
74722;BME280;63470;49.826;6.740;2023-01-26T12:32:12;100800.98;;;2.82;69.75
74722;BME280;63470;49.826;6.740;2023-01-26T12:34:32;100792.67;;;2.78;69.73
74722;BME280;63470;49.826;6.740;2023-01-26T12:39:37;100789.97;;;2.78;69.84
74722;BME280;63470;49.826;6.740;2023-01-26T12:42:00;100791.20;;;2.82;69.71
74722;BME280;63470;49.826;6.740;2023-01-26T12:44:39;100780.91;;;2.78;69.55
74722;BME280;63470;49.826;6.740;2023-01-26T12:47:13;100778.20;;;2.77;69.59
74722;BME280;63470;49.826;6.740;2023-01-26T12:49:26;100776.69;;;2.79;69.63
74722;BME280;63470;49.826;6.740;2023-01-26T12:52:22;100770.98;;;2.85;69.68
74722;BME280;63470;49.826;6.740;2023-01-26T12:54:33;100773.27;;;2.93;69.67
74722;BME280;63470;49.826;6.740;2023-01-26T12:56:56;100765.21;;;2.96;69.59
74722;BME280;63470;49.826;6.740;2023-01-26T12:59:32;100762.97;;;2.94;69.51
74722;BME280;63470;49.826;6.740;2023-01-26T13:01:54;100757.27;;;2.94;69.57
74722;BME280;63470;49.826;6.740;2023-01-26T13:04:24;100763.59;;;2.97;69.57
74722;BME280;63470;49.826;6.740;2023-01-26T13:07:00;100761.19;;;3.02;69.59
74722;BME280;63470;49.826;6.740;2023-01-26T13:09:25;100755.49;;;3.10;69.55
74722;BME280;63470;49.826;6.740;2023-01-26T13:11:56;100753.48;;;3.18;69.54
74722;BME280;63470;49.826;6.740;2023-01-26T13:16:56;100763.03;;;3.59;69.44
74722;BME280;63470;49.826;6.740;2023-01-26T13:21:57;100758.99;;;3.69;69.22
74722;BME280;63470;49.826;6.740;2023-01-26T13:26:58;100757.95;;;3.51;69.34
74722;BME280;63470;49.826;6.740;2023-01-26T13:29:30;100760.09;;;3.44;69.53
74722;BME280;63470;49.826;6.740;2023-01-26T13:32:00;100756.52;;;3.38;69.37
74722;BME280;63470;49.826;6.740;2023-01-26T13:34:36;100762.65;;;3.27;69.44
74722;BME280;63470;49.826;6.740;2023-01-26T13:37:22;100758.39;;;3.19;69.57
74722;BME280;63470;49.826;6.740;2023-01-26T13:39:39;100764.50;;;3.15;69.64
74722;BME280;63470;49.826;6.740;2023-01-26T13:42:00;100760.27;;;3.12;69.63
74722;BME280;63470;49.826;6.740;2023-01-26T13:44:39;100761.20;;;3.09;69.67
74722;BME280;63470;49.826;6.740;2023-01-26T13:47:10;100762.61;;;3.11;69.71
74722;BME280;63470;49.826;6.740;2023-01-26T13:49:39;100761.97;;;3.08;69.61
74722;BME280;63470;49.826;6.740;2023-01-26T13:52:02;100763.23;;;3.02;69.63
74722;BME280;63470;49.826;6.740;2023-01-26T13:54:32;100765.97;;;2.97;69.62
74722;BME280;63470;49.826;6.740;2023-01-26T13:57:11;100766.77;;;2.92;69.62
74722;BME280;63470;49.826;6.740;2023-01-26T13:59:51;100767.67;;;2.86;69.57